createdAt,value
2019-05-17T00:03:24.211Z,100374.80
2019-05-17T00:08:33.912Z,100378.67
2019-05-17T00:13:32.794Z,100379.56
2019-05-17T00:18:37.043Z,100372.64
2019-05-17T00:23:40.537Z,100362.21
2019-05-17T00:28:43.958Z,100349.59
2019-05-17T00:33:47.400Z,100345.68
2019-05-17T00:38:51.580Z,100333.95
2019-05-17T00:43:56.953Z,100335.66
2019-05-17T00:49:00.524Z,100332.34
2019-05-17T00:54:03.940Z,100326.71
2019-05-17T00:59:07.572Z,100319.92
2019-05-17T01:04:11.061Z,100313.41
2019-05-17T01:09:16.806Z,100308.16
2019-05-17T01:14:19.630Z,100307.02
2019-05-17T01:19:23.057Z,100301.53
2019-05-17T01:24:27.447Z,100300.32
2019-05-17T01:29:30.899Z,100287.13
2019-05-17T01:34:34.426Z,100279.28
2019-05-17T01:39:37.911Z,100282.23
2019-05-17T01:44:41.342Z,100286.90
2019-05-17T01:49:46.807Z,100279.12
2019-05-17T01:54:49.934Z,100276.06
2019-05-17T01:59:53.437Z,100278.67
2019-05-17T02:04:57.035Z,100273.80
2019-05-17T02:10:00.485Z,100267.28
2019-05-17T02:15:10.038Z,100275.14
2019-05-17T02:20:14.104Z,100265.67
2019-05-17T02:25:19.152Z,100263.06
2019-05-17T02:30:23.482Z,100259.53
2019-05-17T02:35:27.156Z,100258.23
2019-05-17T02:40:33.543Z,100256.11
2019-05-17T02:45:35.804Z,100244.45
2019-05-17T02:50:39.154Z,100250.55
2019-05-17T02:55:43.513Z,100248.43
2019-05-17T03:00:47.298Z,100240.65
2019-05-17T03:05:53.645Z,100243.22
2019-05-17T03:10:55.983Z,100244.00
2019-05-17T03:15:59.400Z,100244.37
2019-05-17T03:21:04.095Z,100242.22
2019-05-17T03:26:07.712Z,100239.69
2019-05-17T03:31:16.593Z,100236.67
2019-05-17T03:36:17.831Z,100229.30
2019-05-17T03:41:27.894Z,100231.02
2019-05-17T03:46:26.974Z,100227.52
2019-05-17T03:51:33.348Z,100219.70
2019-05-17T03:56:35.778Z,100218.80
2019-05-17T04:01:39.203Z,100211.88
2019-05-17T04:06:43.596Z,100211.02
2019-05-17T04:11:47.360Z,100210.58
2019-05-17T04:16:53.592Z,100203.69
2019-05-17T04:21:55.943Z,100204.51
2019-05-17T04:27:03.206Z,100210.58
2019-05-17T04:32:04.661Z,100205.33
2019-05-17T04:37:08.095Z,100204.92
2019-05-17T04:42:13.630Z,100205.70
2019-05-17T04:47:16.775Z,100209.09
2019-05-17T04:52:22.801Z,100207.75
2019-05-17T04:57:25.423Z,100209.46
2019-05-17T05:02:28.869Z,100205.97
2019-05-17T05:07:33.557Z,100198.59
2019-05-17T05:12:37.140Z,100190.81
2019-05-17T05:17:42.550Z,100187.69
2019-05-17T05:22:45.710Z,100194.56
2019-05-17T05:27:49.150Z,100192.38
2019-05-17T05:32:52.584Z,100192.74
2019-05-17T05:37:56.498Z,100187.74
2019-05-17T05:43:02.137Z,100179.02
2019-05-17T05:48:05.160Z,100180.77
2019-05-17T05:53:08.599Z,100177.19
2019-05-17T05:58:12.542Z,100179.34
2019-05-17T06:03:18.893Z,100175.77
2019-05-17T06:08:22.898Z,100176.48
2019-05-17T06:13:26.434Z,100175.05
2019-05-17T06:18:31.851Z,100169.27
2019-05-17T06:23:34.999Z,100164.36
2019-05-17T06:28:38.408Z,100162.84
2019-05-17T06:33:42.292Z,100163.92
2019-05-17T06:38:46.760Z,100165.90
2019-05-17T06:43:52.357Z,100178.00
2019-05-17T06:48:55.412Z,100177.68
2019-05-17T06:53:58.854Z,100179.52
2019-05-17T06:59:02.274Z,100177.55
2019-05-17T07:04:05.698Z,100175.54
2019-05-17T07:09:10.070Z,100161.03
2019-05-17T07:14:13.725Z,100161.19
2019-05-17T07:19:19.644Z,100161.03
2019-05-17T07:24:22.320Z,100156.43
2019-05-17T07:29:25.764Z,100153.56
2019-05-17T07:34:30.849Z,100150.66
2019-05-17T07:39:34.407Z,100142.17
2019-05-17T07:44:40.144Z,100144.42
2019-05-17T07:49:42.995Z,100136.55
2019-05-17T07:54:46.451Z,100131.38
2019-05-17T07:59:50.788Z,100130.04
2019-05-17T08:04:54.273Z,100126.52
2019-05-17T08:09:59.932Z,100108.56
2019-05-17T08:15:02.958Z,100108.84
2019-05-17T08:20:10.047Z,100105.76
2019-05-17T08:25:13.170Z,100106.63
2019-05-17T08:30:20.096Z,100106.34
2019-05-17T08:35:23.061Z,100100.66
2019-05-17T08:40:26.501Z,100104.23
2019-05-17T08:45:29.939Z,100105.05
2019-05-17T08:55:54.713Z,100099.36
2019-05-17T09:01:00.347Z,100095.33
2019-05-17T09:06:03.314Z,100094.28
2019-05-17T09:11:06.735Z,100091.73
2019-05-17T09:16:10.747Z,100095.20
2019-05-17T09:21:14.416Z,100091.16
2019-05-17T09:26:19.847Z,100089.56
2019-05-17T09:31:23.009Z,100084.00
2019-05-17T09:36:26.419Z,100074.73
2019-05-17T09:41:29.864Z,100068.66
2019-05-17T09:46:34.058Z,100070.32
2019-05-17T09:51:39.479Z,100065.88
2019-05-17T09:56:42.562Z,100069.02
2019-05-17T10:01:45.986Z,100061.37
2019-05-17T10:06:51.316Z,100053.89
2019-05-17T10:11:54.632Z,100054.84
2019-05-17T10:17:00.167Z,100055.66
2019-05-17T10:22:03.207Z,100053.59
2019-05-17T10:27:06.626Z,100056.72
2019-05-17T10:32:10.592Z,100046.50
2019-05-17T10:37:14.175Z,100041.08
2019-05-17T10:42:17.566Z,100040.28
2019-05-17T10:47:20.992Z,100046.41
2019-05-17T10:52:24.438Z,100048.45
2019-05-17T10:57:30.099Z,100046.54
2019-05-17T11:02:33.084Z,100048.98
2019-05-17T11:07:36.524Z,100043.00
2019-05-17T11:12:40.025Z,100045.83
2019-05-17T11:17:43.504Z,100047.99
2019-05-17T11:22:46.926Z,100045.35
2019-05-17T11:27:50.360Z,100039.59
2019-05-17T11:32:53.809Z,100019.73
2019-05-17T11:37:57.285Z,100030.84
2019-05-17T11:43:00.704Z,100022.86
2019-05-17T11:48:04.265Z,100018.94
2019-05-17T11:53:07.704Z,100019.34
2019-05-17T11:58:11.118Z,100012.00
2019-05-17T12:03:15.569Z,100008.98
2019-05-17T12:08:19.178Z,100006.63
2019-05-17T12:13:22.574Z,100001.48
2019-05-17T12:18:26.058Z,99998.43
2019-05-17T12:23:29.480Z,99994.94
2019-05-17T12:28:32.901Z,99993.91
2019-05-17T12:33:36.339Z,100013.63
2019-05-17T12:38:39.809Z,100001.09
2019-05-17T12:43:43.221Z,100002.63
2019-05-17T12:48:46.646Z,99994.00
2019-05-17T12:53:50.089Z,99983.69
2019-05-17T12:58:53.492Z,99976.89
2019-05-17T13:03:56.907Z,99964.81
2019-05-17T13:09:00.382Z,99967.78
2019-05-17T13:14:04.110Z,99970.33
2019-05-17T13:19:07.535Z,99973.08
2019-05-17T13:24:11.968Z,99970.14
2019-05-17T13:29:15.480Z,99964.78
2019-05-17T13:34:18.912Z,99966.40
2019-05-17T13:39:22.338Z,99959.34
2019-05-17T13:44:25.758Z,99964.59
2019-05-17T13:49:29.203Z,99957.08
2019-05-17T13:54:32.627Z,99956.52
2019-05-17T13:59:36.105Z,99957.05
2019-05-17T14:04:39.575Z,99950.02
2019-05-17T14:09:43.044Z,99948.37
2019-05-17T14:14:46.487Z,99953.86
2019-05-17T14:19:49.940Z,99951.89
2019-05-17T14:24:53.355Z,99960.25
2019-05-17T14:29:56.802Z,99953.89
2019-05-17T14:35:00.234Z,99946.69
2019-05-17T14:40:05.313Z,99945.80
2019-05-17T14:45:09.893Z,99945.06
2019-05-17T14:50:13.449Z,99945.39
2019-05-17T14:55:16.950Z,99950.98
2019-05-17T15:00:21.447Z,99947.27
2019-05-17T15:05:24.895Z,99948.89
2019-05-17T15:10:28.328Z,99940.37
2019-05-17T15:15:31.820Z,99935.34
2019-05-17T15:20:35.283Z,99932.83
2019-05-17T15:25:39.112Z,99929.19
2019-05-17T15:30:42.550Z,99922.09
2019-05-17T15:35:45.969Z,99916.68
2019-05-17T15:40:49.503Z,99914.92
2019-05-17T15:45:52.930Z,99914.80
2019-05-17T15:50:56.368Z,99913.91
2019-05-17T15:55:59.800Z,99914.71
2019-05-17T16:01:03.288Z,99914.23
2019-05-17T16:06:06.740Z,99910.27
2019-05-17T16:11:10.152Z,99906.12
2019-05-17T16:16:13.592Z,99908.23
2019-05-17T16:21:17.052Z,99901.41
2019-05-17T16:26:20.559Z,99896.81
2019-05-17T16:31:24.626Z,99889.61
2019-05-17T16:36:27.988Z,99889.32
2019-05-17T16:41:31.414Z,99883.86
2019-05-17T16:46:34.816Z,99880.70
2019-05-17T16:51:38.238Z,99881.84
2019-05-17T16:56:41.698Z,99881.63
2019-05-17T17:01:45.147Z,99881.05
2019-05-17T17:06:48.558Z,99878.86
2019-05-17T17:11:51.969Z,99882.45
2019-05-17T17:16:55.450Z,99891.98
2019-05-17T17:21:58.939Z,99881.55
2019-05-17T17:27:02.386Z,99887.20
2019-05-17T17:32:19.424Z,99888.43
2019-05-17T17:37:10.977Z,99891.53
2019-05-17T17:42:14.386Z,99887.72
2019-05-17T17:47:17.816Z,99894.47
2019-05-17T17:52:21.228Z,99886.41
2019-05-17T17:57:24.669Z,99889.59
2019-05-17T18:02:28.105Z,99884.13
2019-05-17T18:07:31.646Z,99886.63
2019-05-17T18:12:35.060Z,99884.54
2019-05-17T18:17:39.628Z,99882.04
2019-05-17T18:22:43.905Z,99879.72
2019-05-17T18:27:47.317Z,99879.33
2019-05-17T18:32:50.809Z,99886.20
2019-05-17T18:37:54.966Z,99888.89
2019-05-17T18:42:58.372Z,99888.00
2019-05-17T18:48:01.943Z,99884.11
2019-05-17T18:53:06.577Z,99890.16
2019-05-17T18:58:10.644Z,99886.00
2019-05-17T19:03:14.567Z,99887.44
2019-05-17T19:08:18.075Z,99885.63
2019-05-17T19:13:21.537Z,99886.91
2019-05-17T19:18:24.972Z,99887.37
2019-05-17T19:23:28.409Z,99895.21
2019-05-17T19:28:31.839Z,99895.25
2019-05-17T19:33:35.250Z,99891.02
2019-05-17T19:38:38.662Z,99900.36
2019-05-17T19:43:42.083Z,99899.03
2019-05-17T19:48:45.507Z,99911.63
2019-05-17T19:53:48.942Z,99910.43
2019-05-17T19:58:52.363Z,99918.66
2019-05-17T20:03:55.802Z,99915.89
2019-05-17T20:08:59.220Z,99915.74
2019-05-17T20:14:02.645Z,99913.72
2019-05-17T20:19:06.066Z,99917.44
2019-05-17T20:24:09.487Z,99913.98
2019-05-17T20:29:12.949Z,99910.15
2019-05-17T20:34:16.367Z,99904.29
2019-05-17T20:39:19.795Z,99902.33
2019-05-17T20:44:23.214Z,99902.86
2019-05-17T20:49:26.655Z,99902.04
2019-05-17T20:54:30.066Z,99902.57
2019-05-17T20:59:33.488Z,99899.39
2019-05-17T21:04:36.915Z,99894.22
2019-05-17T21:09:40.348Z,99899.72
2019-05-17T21:14:43.756Z,99890.32
2019-05-17T21:19:47.191Z,99891.75
2019-05-17T21:24:50.622Z,99887.69
2019-05-17T21:29:54.058Z,99890.07
2019-05-17T21:34:57.481Z,99883.44
2019-05-17T21:40:00.907Z,99888.85
2019-05-17T21:45:10.275Z,99881.64
2019-05-17T21:50:14.307Z,99891.12
2019-05-17T21:55:17.756Z,99891.02
2019-05-17T22:00:51.874Z,99895.32
2019-05-17T22:05:55.317Z,99888.39
2019-05-17T22:10:58.745Z,99889.30
2019-05-17T22:16:02.185Z,99876.89
2019-05-17T22:21:05.660Z,99880.08
2019-05-17T22:26:09.153Z,99879.87
2019-05-17T22:31:12.583Z,99880.34
2019-05-17T22:36:16.038Z,99876.14
2019-05-17T22:41:19.535Z,99873.84
2019-05-17T22:46:35.715Z,99870.88
2019-05-17T22:51:28.131Z,99865.68
2019-05-17T22:56:31.568Z,99857.94
2019-05-17T23:01:34.995Z,99857.09
2019-05-17T23:06:38.478Z,99850.89
2019-05-17T23:11:41.916Z,99856.83
2019-05-17T23:16:51.533Z,99854.53
2019-05-17T23:21:50.602Z,99852.95
2019-05-17T23:26:54.098Z,99852.02
2019-05-17T23:31:57.480Z,99846.23
2019-05-17T23:37:00.901Z,99841.47
2019-05-17T23:42:04.331Z,99843.80
2019-05-17T23:47:07.760Z,99845.22
2019-05-17T23:52:11.200Z,99833.75
2019-05-17T23:57:14.624Z,99839.67
